Portada
METAR-TAF:

METAR-TAF

Aeroports :

Vientiane, Laos

latitud: 17-57N, longitud: 102-34E, altitud: 171 m

Observació

L'informe es va fer fa 8 hores i 23 minuts, a les 13:00 UTC
Vent calma
Temperatura 23°C
Humitat 100%
Pressió 1011 hPa
Visibilitat: 4000 m
Cel ennuvolat a una alçada de 4000 ft
boirina

METAR: VLVT 191300Z 00000KT 4000 BR BKN040 23/23 Q1011 NOSIG

Hora: 04:23 (21:23 UTC)

Pronòstic

L'informe es va fer fa 4 hores i 23 minuts, a les 17:00 UTC
Pronòstic vàlid del 19 a les 18 UTC al 20 a les 18 UTC
Vent 4 kt del Est
Visibilitat: 8000 m
Cel ennuvolat a una alçada de 1600 ft
Cel ennuvolat a una alçada de 8300 ft

TAF: VLVT 191700Z 1918/2018 09004KT 8000 BKN016 BKN083

Observacions i pronòstics meteorològics de més de 4000 aeroports (METAR i TAF).

Les estacions disponibles són els punts grocs i vermells al mapa.

Posi el ratolí al punt desitjat per veure el nom de l'estació.

Feu clic per veure les observacions i els pronòstics meteorològics.

Per canviar el mapa: feu clic els botons verds amb una creu de color negre per apropar; al botó verd amb un guió per allunyar la imatge; o en les fletxes verdes per a mapes adjacents.


METAR-TAF: